Golden Princess — ZCDA9 — position and weather

sailwx.info

Track history (hours):
 
Tides and Currents Weather Stations Pressure Air Temp Water Temp Dewpoint Dewpoint Depression Visibility Wind Speed Wind Dir Waves Ship Positions

Golden Princess

Operator: Princess Cruises

Last reported at 2015-Dec-12 11:05 UTC. Time now 2016-Feb-11 19:00 UTC.
Position S 36°29' E 175°57'.
Warning: this ship's position is months out of date.

Length 289.6 m; beam 36 m; draft 8.5 m.

Type: Ship. MMSI: 310344000.

Date/timePositionNaut miles runAvg speedWind from/ knotsBaromVisibWave heightAir tempDewpointWater temp
2015-Dec-12 11:05S 36°29' E 175°57'1819.4
2015-Dec-12 10:11S 36°24' E 175°36'1320.9
2015-Dec-12 09:33S 36°24' E 175°20'1918.9
2015-Dec-12 08:33S 36°35' E 175°01'1616.0
2015-Dec-12 07:33S 36°48' E 174°49'3 3.2
2015-Dec-12 06:28S 36°51' E 174°46'0 0.0
2015-Dec-12 05:28S 36°51' E 174°46'0 0.0
2015-Dec-12 04:33S 36°51' E 174°46'0 0.0
2015-Dec-12 03:33S 36°51' E 174°46'0 0.0
2015-Dec-12 02:32S 36°51' E 174°46'0 0.0
2015-Dec-12 01:32S 36°51' E 174°46'0 0.0
2015-Dec-12 00:31S 36°51' E 174°46'0 0.0
2015-Dec-11 23:31S 36°51' E 174°46'0 0.0
2015-Dec-11 22:31S 36°51' E 174°46'0 0.0
2015-Dec-11 21:18S 36°51' E 174°46'0 0.0
2015-Dec-11 20:30S 36°51' E 174°46'1 1.6
2015-Dec-11 19:33S 36°50' E 174°48'1110.8
2015-Dec-11 18:33S 36°41' E 174°54'1413.6
2015-Dec-11 17:33S 36°28' E 174°59'1515.3
2015-Dec-11 16:33S 36°12' E 174°56'1717.2
2015-Dec-11 15:33S 35°55' E 174°55'  
2015-Dec-07 15:29S 38°34' E 144°48'1920.6
2015-Dec-07 14:33S 38°44' E 145°10'2221.0
2015-Dec-07 13:31S 38°54' E 145°34'2021.0
2015-Dec-07 12:33S 39°04' E 145°57'2020.1
2015-Dec-07 11:33S 39°11' E 146°21'2120.6
2015-Dec-07 10:34S 39°05' E 146°47'2121.0
2015-Dec-07 09:33S 39°02' E 147°13'12920.7
2015-Dec-07 03:20S 39°40' E 149°53'  
Track history (hours):
 
Tides and Currents Weather Stations Pressure Air Temp Water Temp Dewpoint Dewpoint Depression Visibility Wind Speed Wind Dir Waves Ship Positions

Golden Princess

Operator: Princess Cruises

Last reported at 2015-Dec-12 11:05 UTC. Time now 2016-Feb-11 19:00 UTC.
Position S 36°29' E 175°57'.
Warning: this ship's position is months out of date.

Length 289.6 m; beam 36 m; draft 8.5 m.

Type: Ship. MMSI: 310344000.

Date/timePositionNaut miles runAvg speedWind from/ knotsBaromVisibWave heightAir tempDewpointWater temp
2015-Dec-12 11:05S 36°29' E 175°57'1819.4
2015-Dec-12 10:11S 36°24' E 175°36'1320.9
2015-Dec-12 09:33S 36°24' E 175°20'1918.9
2015-Dec-12 08:33S 36°35' E 175°01'1616.0
2015-Dec-12 07:33S 36°48' E 174°49'3 3.2
2015-Dec-12 06:28S 36°51' E 174°46'0 0.0
2015-Dec-12 05:28S 36°51' E 174°46'0 0.0
2015-Dec-12 04:33S 36°51' E 174°46'0 0.0
2015-Dec-12 03:33S 36°51' E 174°46'0 0.0
2015-Dec-12 02:32S 36°51' E 174°46'0 0.0
2015-Dec-12 01:32S 36°51' E 174°46'0 0.0
2015-Dec-12 00:31S 36°51' E 174°46'0 0.0
2015-Dec-11 23:31S 36°51' E 174°46'0 0.0
2015-Dec-11 22:31S 36°51' E 174°46'0 0.0
2015-Dec-11 21:18S 36°51' E 174°46'0 0.0
2015-Dec-11 20:30S 36°51' E 174°46'1 1.6
2015-Dec-11 19:33S 36°50' E 174°48'1110.8
2015-Dec-11 18:33S 36°41' E 174°54'1413.6
2015-Dec-11 17:33S 36°28' E 174°59'1515.3
2015-Dec-11 16:33S 36°12' E 174°56'1717.2
2015-Dec-11 15:33S 35°55' E 174°55'  
2015-Dec-07 15:29S 38°34' E 144°48'1920.6
2015-Dec-07 14:33S 38°44' E 145°10'2221.0
2015-Dec-07 13:31S 38°54' E 145°34'2021.0
2015-Dec-07 12:33S 39°04' E 145°57'2020.1
2015-Dec-07 11:33S 39°11' E 146°21'2120.6
2015-Dec-07 10:34S 39°05' E 146°47'2121.0
2015-Dec-07 09:33S 39°02' E 147°13'12920.7
2015-Dec-07 03:20S 39°40' E 149°53'  

Dump ship's entire track history